Time;durP1;ratioP1;P1;durP2;ratioP2;P2;SDS_P1;SDS_P2;PMS_P1;PMS_P2;Temp;Humidity;BMP_temperature;BMP_pressure;BME280_temperature;BME280_humidity;BME280_pressure;Samples;Min_cycle;Max_cycle;Signal;HPM_P1;HPM_P2
2022/04/02 00:00:45;;;;;;;2.53;1.50;;;;;;;11.30;92.31;93084.00;6146458;23;20709;-87
2022/04/02 00:03:13;;;;;;;4.33;1.57;;;;;;;11.26;90.48;93095.94;6146282;23;20175;-87
2022/04/02 00:05:40;;;;;;;3.30;1.50;;;;;;;11.30;90.56;93087.38;6146821;23;20179;-86
2022/04/02 00:08:08;;;;;;;4.47;1.50;;;;;;;11.28;90.54;93084.22;6146737;23;20191;-87
2022/04/02 00:10:35;;;;;;;2.87;1.30;;;;;;;11.25;90.00;93069.19;6146650;23;20515;-87
2022/04/02 00:13:02;;;;;;;2.90;1.20;;;;;;;11.24;86.84;93072.81;6146561;23;20836;-87
2022/04/02 00:15:29;;;;;;;1.87;1.20;;;;;;;11.28;86.61;93079.03;6146229;23;20661;-88
2022/04/02 00:17:56;;;;;;;3.03;1.20;;;;;;;11.30;87.05;93078.78;6146982;23;20172;-84
2022/04/02 00:20:23;;;;;;;3.53;1.10;;;;;;;11.35;85.64;93091.78;6146435;23;20175;-84
2022/04/02 00:25:32;;;;;;;1.30;1.03;;;;;;;11.28;86.62;93091.28;6145924;22;20174;-84
2022/04/02 00:27:59;;;;;;;3.07;1.13;;;;;;;11.27;85.58;93090.50;6146210;23;20195;-84
2022/04/02 00:30:25;;;;;;;1.60;0.90;;;;;;;11.23;85.49;93086.06;6146000;23;20551;-85
2022/04/02 00:32:52;;;;;;;1.03;0.90;;;;;;;11.18;85.03;93079.03;6145908;23;20163;-84
2022/04/02 00:35:19;;;;;;;1.00;0.90;;;;;;;11.21;84.82;93086.31;6144722;23;20172;-85
2022/04/02 00:37:46;;;;;;;3.47;1.23;;;;;;;11.29;85.24;93111.81;6145902;23;20538;-86
2022/04/02 00:40:13;;;;;;;2.37;1.10;;;;;;;11.29;83.93;93119.59;6146182;23;20167;-85
2022/04/02 00:42:41;;;;;;;1.20;1.10;;;;;;;11.09;84.36;93093.59;6144961;23;20182;-84
2022/04/02 00:45:09;;;;;;;3.60;1.00;;;;;;;11.25;85.04;93108.19;6145656;23;20198;-86
2022/04/02 00:47:39;;;;;;;1.47;1.27;;;;;;;11.15;84.81;93109.97;6144392;23;20192;-86
2022/04/02 00:50:07;;;;;;;2.83;0.93;;;;;;;11.24;84.46;93108.44;6144374;23;20160;-81
2022/04/02 00:52:34;;;;;;;2.30;1.13;;;;;;;11.19;85.30;93109.22;6142622;23;20232;-82
2022/04/02 00:55:01;;;;;;;1.20;0.90;;;;;;;11.14;86.44;93105.84;6145490;23;20179;-87
2022/04/02 00:57:43;;;;;;;3.80;1.20;;;;;;;11.05;85.63;93087.38;6145493;23;20541;-82
2022/04/02 01:00:11;;;;;;;2.63;1.30;;;;;;;11.09;85.79;93106.59;6145823;23;20179;-83
2022/04/02 01:02:39;;;;;;;1.10;1.00;;;;;;;10.85;87.04;93066.53;6145602;23;20168;-83
2022/04/02 01:05:08;;;;;;;2.20;0.90;;;;;;;10.99;86.31;93100.63;6146098;23;20199;-85
2022/04/02 01:07:36;;;;;;;2.20;1.10;;;;;;;11.01;86.43;93108.94;6145921;23;20170;-84
2022/04/02 01:10:04;;;;;;;2.73;1.03;;;;;;;10.72;86.79;93080.03;6146817;23;20180;-85
2022/04/02 01:12:31;;;;;;;3.37;1.17;;;;;;;10.89;85.29;93103.97;6147380;23;20172;-83
2022/04/02 01:15:01;;;;;;;1.23;1.10;;;;;;;10.95;85.75;93120.34;6146898;23;20168;-82
2022/04/02 01:17:28;;;;;;;1.40;1.10;;;;;;;10.92;86.00;93126.84;6146565;23;20604;-81
2022/04/02 01:19:55;;;;;;;1.07;1.07;;;;;;;10.95;85.54;93121.13;6148921;23;20170;-84
2022/04/02 01:22:23;;;;;;;1.03;0.87;;;;;;;10.83;86.54;93131.78;6147029;23;20521;-84
2022/04/02 01:24:50;;;;;;;2.30;1.50;;;;;;;10.87;85.82;93146.84;6147599;23;20184;-84
2022/04/02 01:28:02;;;;;;;1.00;0.90;;;;;;;10.81;86.50;93146.06;6146999;23;20221;-83
2022/04/02 01:30:29;;;;;;;2.83;1.03;;;;;;;10.76;86.81;93149.41;6063023;23;20173;-82
2022/04/02 01:32:57;;;;;;;1.57;1.10;;;;;;;10.73;86.71;93152.53;6148022;23;20156;-84
2022/04/02 01:35:24;;;;;;;3.80;1.23;;;;;;;10.77;86.34;93160.59;6147149;23;20627;-83
2022/04/02 01:37:53;;;;;;;2.40;1.10;;;;;;;10.77;86.05;93156.19;6147540;23;20179;-83
2022/04/02 01:40:21;;;;;;;2.33;1.20;;;;;;;10.73;86.30;93169.94;6147557;23;20175;-83
2022/04/02 01:42:48;;;;;;;3.80;0.93;;;;;;;10.60;87.29;93176.38;6146925;23;20179;-83
2022/04/02 01:45:16;;;;;;;2.07;1.10;;;;;;;10.60;86.99;93163.41;6147880;23;20183;-83
2022/04/02 01:47:43;;;;;;;2.97;1.20;;;;;;;10.63;87.35;93180.28;6146752;23;20523;-83
2022/04/02 01:50:10;;;;;;;2.17;1.10;;;;;;;10.62;86.77;93176.91;6147438;23;20528;-83
2022/04/02 01:52:39;;;;;;;1.63;1.20;;;;;;;10.58;87.46;93159.50;6146982;23;20228;-82
2022/04/02 01:55:08;;;;;;;1.20;1.07;;;;;;;10.48;87.05;93181.00;6147010;23;20160;-82
2022/04/02 01:57:35;;;;;;;1.77;1.20;;;;;;;10.57;87.13;93174.28;6146499;23;20167;-83
2022/04/02 02:00:02;;;;;;;1.80;1.20;;;;;;;10.60;87.83;93180.78;6146942;23;20178;-83
2022/04/02 02:02:29;;;;;;;2.17;1.00;;;;;;;10.54;87.67;93177.41;6146852;23;20171;-82
2022/04/02 02:04:56;;;;;;;3.10;1.20;;;;;;;10.51;88.37;93164.91;6147322;23;20179;-83
2022/04/02 02:07:23;;;;;;;1.00;1.00;;;;;;;10.59;87.52;93174.06;6147567;23;20222;-84
2022/04/02 02:09:49;;;;;;;3.00;1.23;;;;;;;10.55;87.33;93165.19;6147859;23;20195;-84
2022/04/02 02:12:18;;;;;;;2.67;1.50;;;;;;;10.54;87.96;93176.59;6147284;23;20175;-83
2022/04/02 02:14:45;;;;;;;4.13;1.50;;;;;;;10.55;87.88;93160.00;6146876;23;20255;-84
2022/04/02 02:17:12;;;;;;;3.53;1.30;;;;;;;10.50;87.71;93140.00;6145349;23;20202;-83
2022/04/02 02:19:39;;;;;;;2.90;1.17;;;;;;;10.53;87.81;93165.47;6148198;23;20171;-84
2022/04/02 02:22:06;;;;;;;4.63;1.40;;;;;;;10.33;87.53;93115.25;6148753;23;20168;-84
2022/04/02 02:24:33;;;;;;;4.97;1.40;;;;;;;10.46;87.62;93131.13;6147711;23;20168;-84
2022/04/02 02:27:07;;;;;;;1.20;1.03;;;;;;;10.51;86.75;93128.56;6146705;23;20183;-84
2022/04/02 02:29:35;;;;;;;1.10;1.00;;;;;;;10.53;86.55;93136.91;6145117;23;20187;-84
2022/04/02 02:32:02;;;;;;;2.03;1.30;;;;;;;10.47;87.54;93130.13;6147448;23;20163;-84
2022/04/02 02:37:32;;;;;;;2.70;1.20;;;;;;;10.51;86.89;93141.53;6149765;23;20182;-84
2022/04/02 02:39:59;;;;;;;1.87;1.17;;;;;;;10.49;86.87;93125.44;6088015;23;20165;-84
2022/04/02 02:42:27;;;;;;;2.60;1.27;;;;;;;10.50;86.95;93134.03;6137744;23;20167;-84
2022/04/02 02:44:55;;;;;;;2.77;1.27;;;;;;;10.44;86.24;93119.44;6147652;23;20206;-85
2022/04/02 02:47:22;;;;;;;3.00;1.50;;;;;;;10.52;86.27;93129.34;6146683;23;20179;-84
2022/04/02 02:49:53;;;;;;;1.90;1.20;;;;;;;10.57;84.68;93119.75;6146898;23;20668;-84
2022/04/02 02:52:20;;;;;;;4.27;1.40;;;;;;;10.60;85.32;93108.84;6147036;23;20179;-85
2022/04/02 02:54:47;;;;;;;3.03;1.40;;;;;;;10.63;85.86;93113.53;6146869;23;20190;-85
2022/04/02 02:57:14;;;;;;;1.03;0.97;;;;;;;10.58;83.39;93104.94;6147000;23;20289;-85
2022/04/02 02:59:41;;;;;;;2.10;1.03;;;;;;;10.69;83.21;93125.50;6146458;23;20172;-84
2022/04/02 03:02:11;;;;;;;1.30;0.90;;;;;;;10.81;81.65;93125.28;6146931;23;20182;-83
2022/04/02 03:04:38;;;;;;;1.13;1.00;;;;;;;10.87;81.73;93123.47;6148217;23;20194;-83
2022/04/02 03:07:14;;;;;;;2.43;1.40;;;;;;;10.71;82.22;93100.03;6147421;23;20202;-83
2022/04/02 03:09:41;;;;;;;2.97;1.30;;;;;;;10.83;82.45;93133.59;6147315;23;20281;-84
2022/04/02 03:12:24;;;;;;;3.13;1.33;;;;;;;10.87;80.73;93136.44;6146439;23;20180;-84
2022/04/02 03:14:51;;;;;;;1.33;1.03;;;;;;;10.95;81.19;93157.53;6147172;23;20175;-85
2022/04/02 03:17:19;;;;;;;1.80;1.00;;;;;;;11.01;80.46;93146.09;6146753;23;20518;-85
2022/04/02 03:19:46;;;;;;;1.20;1.03;;;;;;;11.02;79.81;93168.47;6147201;23;20507;-84
2022/04/02 03:22:17;;;;;;;1.13;1.00;;;;;;;11.06;80.38;93155.72;6146588;23;20172;-83
2022/04/02 03:24:44;;;;;;;3.17;1.37;;;;;;;11.05;81.57;93154.97;6146381;23;20862;-83
2022/04/02 03:27:11;;;;;;;2.87;1.30;;;;;;;11.02;81.04;93158.06;6146232;23;20172;-86
2022/04/02 03:29:38;;;;;;;2.20;1.00;;;;;;;11.00;80.99;93148.94;6146453;23;20581;-84
2022/04/02 03:32:06;;;;;;;1.63;1.10;;;;;;;10.99;81.10;93163.00;6146800;23;20163;-83
2022/04/02 03:34:34;;;;;;;2.83;1.30;;;;;;;10.95;82.24;93170.53;6146269;23;20168;-84
2022/04/02 03:37:10;;;;;;;1.93;1.10;;;;;;;10.91;81.54;93158.31;6146273;23;20575;-83
2022/04/02 03:39:37;;;;;;;1.47;1.20;;;;;;;10.82;82.92;93152.81;6145093;23;20168;-84
2022/04/02 03:42:04;;;;;;;1.63;1.07;;;;;;;10.79;81.87;93166.31;6144612;23;20163;-86
2022/04/02 03:44:32;;;;;;;1.30;1.20;;;;;;;10.72;80.97;93122.41;6146398;23;20168;-84
2022/04/02 03:47:10;;;;;;;1.43;1.07;;;;;;;10.77;79.64;93126.81;6147154;23;20225;-85
2022/04/02 03:49:40;;;;;;;1.37;1.07;;;;;;;10.89;79.79;93152.56;6146750;23;20203;-84
2022/04/02 03:52:08;;;;;;;2.30;0.90;;;;;;;10.80;78.75;93121.09;6147020;23;20179;-84
2022/04/02 03:54:35;;;;;;;2.53;0.90;;;;;;;11.04;78.17;93161.19;6147185;23;20177;-86
2022/04/02 03:57:03;;;;;;;0.80;0.80;;;;;;;11.09;76.90;93157.81;6150744;23;20183;-84
2022/04/02 03:59:30;;;;;;;1.13;0.90;;;;;;;11.12;76.72;93152.88;6162925;23;20171;-85
2022/04/02 04:01:57;;;;;;;5.93;1.00;;;;;;;11.24;76.13;93157.84;6147552;23;20178;-85
2022/04/02 04:04:24;;;;;;;3.10;1.00;;;;;;;11.28;75.17;93174.50;6146869;23;20175;-87
2022/04/02 04:06:57;;;;;;;2.20;1.10;;;;;;;11.19;75.57;93165.63;6146998;23;20172;-86
2022/04/02 04:09:24;;;;;;;2.03;1.37;;;;;;;11.32;75.67;93178.91;6146384;23;20190;-84
2022/04/02 04:11:52;;;;;;;1.13;1.00;;;;;;;11.34;76.02;93178.66;6146750;23;20181;-86
2022/04/02 04:14:20;;;;;;;2.07;1.10;;;;;;;11.21;75.73;93190.34;6146420;23;20174;-85
2022/04/02 04:16:48;;;;;;;5.47;1.17;;;;;;;11.43;74.97;93203.09;6146634;23;20171;-86
2022/04/02 04:19:16;;;;;;;3.60;1.23;;;;;;;11.47;74.40;93209.34;6146805;23;20156;-83
2022/04/02 04:21:43;;;;;;;2.13;0.90;;;;;;;11.49;73.95;93217.66;6146974;23;20174;-84
2022/04/02 04:24:12;;;;;;;1.10;0.97;;;;;;;11.51;74.07;93212.22;6146363;23;20175;-84
2022/04/02 04:26:39;;;;;;;2.73;1.17;;;;;;;11.56;73.57;93231.22;6146071;22;20825;-83
2022/04/02 04:29:06;;;;;;;1.13;1.00;;;;;;;11.55;73.67;93228.88;6146098;23;20739;-84
2022/04/02 04:31:33;;;;;;;2.93;1.07;;;;;;;11.49;74.83;93204.66;6145895;23;20175;-82
2022/04/02 04:34:21;;;;;;;2.50;1.10;;;;;;;11.58;75.04;93234.34;6146679;23;20240;-83
2022/04/02 04:36:56;;;;;;;1.90;0.80;;;;;;;11.47;74.33;93224.19;6146590;23;20156;-85
2022/04/02 04:39:24;;;;;;;2.30;1.10;;;;;;;11.62;74.04;93224.19;6145816;23;20179;-85
2022/04/02 04:41:53;;;;;;;1.77;0.97;;;;;;;11.66;73.67;93223.41;6147428;23;20183;-85
2022/04/02 04:44:24;;;;;;;1.83;1.10;;;;;;;11.66;73.05;93246.84;6145801;23;20167;-85
2022/04/02 04:46:51;;;;;;;1.87;1.00;;;;;;;11.59;71.91;93242.94;6146858;23;20156;-84
2022/04/02 04:49:19;;;;;;;2.50;0.90;;;;;;;11.74;71.51;93254.19;6146206;23;20199;-84
2022/04/02 04:51:46;;;;;;;2.13;1.00;;;;;;;11.75;71.00;93250.50;6146145;23;20242;-86
2022/04/02 04:54:25;;;;;;;1.47;1.00;;;;;;;11.79;69.91;93248.97;6146886;23;20376;-85
2022/04/02 04:56:51;;;;;;;0.80;0.80;;;;;;;11.76;68.76;93225.28;6147843;23;20155;-84
2022/04/02 04:59:18;;;;;;;1.27;1.07;;;;;;;11.73;69.69;93228.41;6147142;23;20167;-86
2022/04/02 05:01:49;;;;;;;2.67;1.13;;;;;;;11.88;70.23;93249.22;6147408;23;20168;-86
2022/04/02 05:04:16;;;;;;;1.20;1.10;;;;;;;11.94;69.43;93258.59;6146842;23;20547;-86
2022/04/02 05:06:43;;;;;;;3.53;1.10;;;;;;;12.01;67.91;93243.50;6145599;23;20167;-85
2022/04/02 05:09:11;;;;;;;1.63;0.90;;;;;;;12.07;67.15;93242.44;6146160;23;20178;-85
2022/04/02 05:11:57;;;;;;;3.90;1.50;;;;;;;12.11;67.19;93237.50;6147402;23;20164;-85
2022/04/02 05:14:24;;;;;;;2.00;1.00;;;;;;;12.19;66.78;93261.19;6147495;23;20160;-87
2022/04/02 05:16:52;;;;;;;5.77;1.30;;;;;;;12.17;67.85;93247.66;6148001;23;20186;-86
2022/04/02 05:19:20;;;;;;;1.60;1.20;;;;;;;12.25;68.23;93249.75;6147536;23;20171;-85
2022/04/02 05:21:47;;;;;;;2.20;1.10;;;;;;;12.24;68.46;93253.38;6147773;23;20172;-84
2022/04/02 05:24:27;;;;;;;2.83;1.00;;;;;;;12.15;69.36;93246.38;6149959;23;20183;-83
2022/04/02 05:26:56;;;;;;;2.77;1.30;;;;;;;12.19;68.57;93250.78;6152183;23;20162;-73
2022/04/02 05:29:23;;;;;;;1.77;1.10;;;;;;;12.23;68.26;93253.66;6143665;23;20246;-73
2022/04/02 05:31:49;;;;;;;1.50;1.00;;;;;;;12.23;66.94;93251.81;6144587;23;20261;-72
2022/04/02 05:34:16;;;;;;;1.97;1.13;;;;;;;12.26;67.35;93261.72;6144917;23;20174;-74
2022/04/02 05:36:43;;;;;;;3.13;1.10;;;;;;;12.19;68.36;93248.19;6143151;23;20939;-72
2022/04/02 05:39:10;;;;;;;1.20;1.10;;;;;;;12.28;67.43;93272.66;6143576;23;20603;-73
2022/04/02 05:41:37;;;;;;;2.00;1.13;;;;;;;12.36;65.60;93266.13;6143659;23;20168;-73
2022/04/02 05:44:08;;;;;;;3.50;1.10;;;;;;;12.39;65.70;93268.22;6143819;23;20255;-73
2022/04/02 05:46:35;;;;;;;2.00;1.10;;;;;;;12.39;65.55;93283.84;6143380;23;20168;-73
2022/04/02 05:49:02;;;;;;;1.30;1.20;;;;;;;12.44;64.52;93268.97;6143563;23;20204;-73
2022/04/02 05:51:28;;;;;;;1.27;1.10;;;;;;;12.49;64.99;93252.56;6141779;23;20256;-74
2022/04/02 05:53:55;;;;;;;1.17;0.90;;;;;;;12.55;64.97;93274.19;6143829;23;20163;-73
2022/04/02 05:56:27;;;;;;;1.83;0.80;;;;;;;12.49;64.58;93255.97;6142869;23;20172;-73
2022/04/02 05:58:55;;;;;;;3.60;1.20;;;;;;;12.42;64.99;93247.63;6143225;23;20164;-74
2022/04/02 06:01:23;;;;;;;1.97;1.20;;;;;;;12.38;65.43;93259.59;6142328;23;20175;-74
2022/04/02 06:03:50;;;;;;;2.47;1.07;;;;;;;12.38;65.28;93258.84;6144064;23;20175;-73
2022/04/02 06:06:17;;;;;;;2.57;1.20;;;;;;;12.36;65.29;93269.50;6142658;23;20642;-74
2022/04/02 06:08:44;;;;;;;3.07;1.00;;;;;;;12.29;65.25;93270.84;6143073;23;20178;-75
2022/04/02 06:11:10;;;;;;;0.90;0.90;;;;;;;12.26;65.88;93266.94;6143448;23;20199;-74
2022/04/02 06:13:37;;;;;;;2.23;1.00;;;;;;;12.26;66.28;93282.56;6142932;23;20791;-73
2022/04/02 06:16:06;;;;;;;1.13;1.00;;;;;;;12.24;66.15;93284.63;6144584;23;20645;-73
2022/04/02 06:18:34;;;;;;;0.90;0.80;;;;;;;12.19;66.84;93283.84;6143737;23;20179;-73
2022/04/02 06:21:03;;;;;;;2.23;1.10;;;;;;;12.22;67.36;93298.97;6143669;23;20168;-74
2022/04/02 06:23:30;;;;;;;2.83;0.90;;;;;;;12.22;67.79;93296.34;6143591;23;20245;-75
2022/04/02 06:25:57;;;;;;;4.43;1.33;;;;;;;12.18;68.50;93290.13;6144971;23;20244;-74
2022/04/02 06:28:24;;;;;;;3.30;1.30;;;;;;;12.14;68.88;93281.25;6143896;23;20175;-73
2022/04/02 06:30:50;;;;;;;3.63;1.10;;;;;;;12.16;68.71;93287.75;6143803;23;20202;-73
2022/04/02 06:33:17;;;;;;;7.03;1.40;;;;;;;12.14;68.82;93269.03;6143617;23;20245;-72
2022/04/02 06:35:45;;;;;;;1.47;1.07;;;;;;;12.23;67.89;93297.94;6144602;23;20172;-73
2022/04/02 06:38:13;;;;;;;5.50;1.23;;;;;;;12.23;68.30;93310.94;6144066;23;20537;-73
2022/04/02 06:40:40;;;;;;;3.30;1.10;;;;;;;12.24;67.46;93297.66;6144287;23;20182;-73
2022/04/02 06:43:07;;;;;;;1.50;1.30;;;;;;;12.21;68.71;93297.38;6144358;23;20502;-73
2022/04/02 06:45:35;;;;;;;4.73;1.87;;;;;;;12.30;68.52;93293.22;6144266;23;20164;-74
2022/04/02 06:48:02;;;;;;;2.90;1.20;;;;;;;12.41;68.08;93316.41;6144399;23;20771;-72
2022/04/02 06:50:29;;;;;;;3.57;1.70;;;;;;;12.48;67.43;93309.09;6143926;23;20192;-73
2022/04/02 06:52:58;;;;;;;2.17;1.30;;;;;;;12.56;67.16;93296.56;6144825;23;20176;-71
2022/04/02 06:55:25;;;;;;;2.67;1.30;;;;;;;12.57;66.88;93291.13;6144008;23;20182;-73
2022/04/02 06:57:55;;;;;;;4.60;1.40;;;;;;;12.63;67.07;93312.75;6144777;23;20665;-73
2022/04/02 07:00:22;;;;;;;6.53;1.40;;;;;;;12.67;66.08;93322.34;6143648;23;20174;-72
2022/04/02 07:02:49;;;;;;;1.30;1.00;;;;;;;12.67;65.65;93319.00;6144229;23;20181;-72
2022/04/02 07:05:18;;;;;;;3.33;1.60;;;;;;;12.68;65.82;93355.22;6144653;23;20569;-72
2022/04/02 07:07:45;;;;;;;1.53;1.30;;;;;;;12.70;65.84;93347.16;6144701;23;20178;-73
2022/04/02 07:10:14;;;;;;;2.73;1.60;;;;;;;12.70;65.88;93334.88;6144182;23;20557;-72
2022/04/02 07:12:41;;;;;;;3.70;1.40;;;;;;;12.77;65.71;93334.59;6144350;23;20559;-72
2022/04/02 07:15:09;;;;;;;4.00;1.27;;;;;;;12.88;66.37;93336.94;6144068;23;20171;-72
2022/04/02 07:17:36;;;;;;;4.50;2.00;;;;;;;13.00;64.65;93347.06;6143189;23;20172;-72
2022/04/02 07:20:06;;;;;;;2.40;1.30;;;;;;;13.01;64.04;93349.44;6144537;23;20164;-72
2022/04/02 07:22:35;;;;;;;3.47;1.63;;;;;;;12.93;65.06;93342.13;6144145;23;20182;-73
2022/04/02 07:25:04;;;;;;;4.67;1.20;;;;;;;12.98;64.77;93347.34;6144758;23;20163;-73
2022/04/02 07:27:32;;;;;;;1.67;1.30;;;;;;;13.05;64.53;93353.06;6143054;23;20184;-73
2022/04/02 07:29:59;;;;;;;2.67;1.50;;;;;;;13.04;63.60;93358.56;6142759;23;20190;-74
2022/04/02 07:32:26;;;;;;;2.17;1.57;;;;;;;13.16;64.44;93358.28;6143032;23;20171;-73
2022/04/02 07:34:53;;;;;;;4.17;1.63;;;;;;;13.19;63.95;93362.97;6143853;23;20179;-74
2022/04/02 07:37:31;;;;;;;3.33;1.77;;;;;;;13.17;63.49;93349.41;6143487;23;20585;-73
2022/04/02 07:40:06;;;;;;;6.20;1.83;;;;;;;13.23;64.28;93359.56;6143849;23;20156;-73
2022/04/02 07:42:38;;;;;;;1.97;1.40;;;;;;;13.26;64.69;93338.16;6143051;23;20171;-73
2022/04/02 07:45:07;;;;;;;4.10;1.40;;;;;;;13.33;63.73;93353.53;6143689;23;20156;-74
2022/04/02 07:47:36;;;;;;;2.10;1.50;;;;;;;13.39;64.00;93353.22;6143829;23;20172;-77
2022/04/02 07:50:06;;;;;;;4.20;1.37;;;;;;;13.42;63.55;93357.16;6144310;23;20586;-82
2022/04/02 07:52:33;;;;;;;2.53;1.00;;;;;;;13.44;63.02;93350.63;6142967;23;20164;-83
2022/04/02 07:55:02;;;;;;;5.50;1.40;;;;;;;13.49;63.14;93345.38;6145982;23;20172;-82
2022/04/02 07:57:38;;;;;;;1.77;1.00;;;;;;;13.57;63.40;93351.84;6145709;23;20519;-82
2022/04/02 08:00:07;;;;;;;3.80;1.53;;;;;;;13.65;62.90;93365.13;6146204;23;20190;-81
2022/04/02 08:02:37;;;;;;;2.67;1.40;;;;;;;13.75;62.68;93345.25;6145509;23;20164;-82
2022/04/02 08:05:06;;;;;;;3.30;1.30;;;;;;;13.78;63.11;93332.44;6146318;23;20175;-82
2022/04/02 08:07:35;;;;;;;3.93;1.90;;;;;;;13.78;62.86;93323.81;6146265;23;20168;-81
2022/04/02 08:10:06;;;;;;;1.93;1.20;;;;;;;13.99;61.33;93335.72;6145397;23;20175;-81
2022/04/02 08:12:36;;;;;;;5.20;1.20;;;;;;;14.05;59.21;93330.16;6144894;23;20159;-80
2022/04/02 08:15:06;;;;;;;2.37;1.63;;;;;;;14.05;59.45;93327.56;6145692;23;20507;-82
2022/04/02 08:17:33;;;;;;;6.40;1.50;;;;;;;14.14;60.49;93359.91;6146004;23;20179;-78
2022/04/02 08:20:01;;;;;;;3.60;1.43;;;;;;;14.17;60.30;93348.13;6145212;23;20167;-83
2022/04/02 08:22:28;;;;;;;2.23;1.40;;;;;;;14.19;60.71;93344.22;6146050;23;20221;-82
2022/04/02 08:24:56;;;;;;;3.33;1.40;;;;;;;14.26;59.77;93349.09;6145373;23;20179;-82
2022/04/02 08:27:33;;;;;;;2.87;1.30;;;;;;;14.25;59.43;93346.78;6144896;23;20175;-81
2022/04/02 08:30:07;;;;;;;9.67;2.03;;;;;;;14.22;60.54;93355.94;6146129;23;20160;-80
2022/04/02 08:32:59;;;;;;;1.87;1.27;;;;;;;14.25;59.65;93321.44;6146291;23;20155;-80
2022/04/02 08:35:30;;;;;;;5.60;2.20;;;;;;;14.30;59.65;93331.84;6145860;23;20159;-84
2022/04/02 08:38:10;;;;;;;3.33;1.20;;;;;;;14.36;60.00;93322.16;6148092;23;20164;-82
2022/04/02 08:41:13;;;;;;;4.97;1.30;;;;;;;14.54;60.35;93327.50;6146595;23;20171;-81
2022/04/02 08:44:24;;;;;;;4.00;1.43;;;;;;;14.73;60.23;93338.84;6145487;23;20255;-79
2022/04/02 08:47:11;;;;;;;2.73;1.20;;;;;;;14.96;57.54;93332.06;6145919;23;20532;-81
2022/04/02 08:49:41;;;;;;;3.50;1.20;;;;;;;14.98;56.95;93337.03;6144769;23;20811;-79
2022/04/02 08:52:23;;;;;;;5.10;1.50;;;;;;;15.09;57.11;93346.34;6144896;23;20196;-80
2022/04/02 08:55:10;;;;;;;4.33;1.33;;;;;;;15.18;57.54;93358.53;6145905;23;20648;-80
2022/04/02 08:58:11;;;;;;;4.43;1.73;;;;;;;15.38;57.13;93354.94;6144878;23;20206;-79
2022/04/02 09:00:43;;;;;;;5.63;1.57;;;;;;;15.47;57.53;93348.03;6136284;23;20621;-81
2022/04/02 09:03:41;;;;;;;7.87;1.60;;;;;;;15.56;56.90;93342.94;6144860;23;20179;-80
2022/04/02 09:06:48;;;;;;;4.93;1.70;;;;;;;15.64;57.91;93342.34;6146019;23;20160;-80
2022/04/02 09:09:29;;;;;;;4.23;1.70;;;;;;;15.72;56.40;93341.72;6113647;23;20172;-80
2022/04/02 09:12:22;;;;;;;3.97;1.40;;;;;;;15.66;55.07;93338.38;6143953;23;20179;-80
2022/04/02 09:15:09;;;;;;;3.33;1.30;;;;;;;15.75;55.65;93312.34;6145391;23;20595;-80
2022/04/02 09:17:38;;;;;;;4.07;1.50;;;;;;;15.83;53.93;93337.91;6145347;23;20194;-79
2022/04/02 09:20:21;;;;;;;3.80;1.30;;;;;;;15.89;54.26;93327.09;6145629;22;20168;-80
2022/04/02 09:23:08;;;;;;;2.03;1.50;;;;;;;15.92;53.80;93338.84;6146184;23;20182;-79
2022/04/02 09:26:20;;;;;;;3.37;1.43;;;;;;;16.09;54.80;93339.13;6145232;23;20171;-79
2022/04/02 09:28:52;;;;;;;2.60;1.40;;;;;;;16.19;53.73;93327.72;6145428;23;20168;-80
2022/04/02 09:31:56;;;;;;;2.83;1.40;;;;;;;16.16;53.60;93323.78;6145199;23;20180;-78
2022/04/02 09:35:12;;;;;;;4.03;1.80;;;;;;;16.19;53.42;93346.06;6145303;23;20202;-79
2022/04/02 09:38:09;;;;;;;1.37;1.20;;;;;;;16.23;52.31;93300.63;6145139;23;20681;-80
2022/04/02 09:40:45;;;;;;;2.60;1.87;;;;;;;16.61;53.31;93338.09;6146451;23;20163;-80
2022/04/02 09:43:25;;;;;;;3.23;1.30;;;;;;;16.78;50.41;93330.47;6147176;23;20159;-79
2022/04/02 09:46:10;;;;;;;3.37;1.23;;;;;;;16.82;49.08;93318.34;6148881;23;20159;-80
2022/04/02 09:48:53;;;;;;;1.90;1.20;;;;;;;16.98;47.13;93313.56;6146314;23;20199;-78
2022/04/02 09:51:22;;;;;;;2.00;1.20;;;;;;;17.14;46.02;93348.22;6147699;23;20773;-80
2022/04/02 09:54:02;;;;;;;3.70;1.30;;;;;;;17.21;46.47;93361.72;6148681;23;20631;-80
2022/04/02 09:56:35;;;;;;;3.70;1.47;;;;;;;17.15;46.26;93337.41;6148848;23;20164;-80
2022/04/02 09:59:07;;;;;;;2.00;1.43;;;;;;;17.16;46.93;93328.47;6146434;23;20160;-78
2022/04/02 10:01:40;;;;;;;2.70;1.30;;;;;;;17.49;46.97;93334.41;6146161;23;20163;-79
2022/04/02 10:04:40;;;;;;;2.23;1.47;;;;;;;17.74;47.10;93320.81;6146405;23;20545;-79
2022/04/02 10:07:21;;;;;;;1.93;1.50;;;;;;;17.84;45.81;93320.59;6138538;23;20526;-79
2022/04/02 10:09:54;;;;;;;1.57;1.30;;;;;;;18.00;44.68;93313.16;6145887;23;20480;-79
2022/04/02 10:12:23;;;;;;;3.10;1.50;;;;;;;17.92;44.44;93327.00;6144640;23;20562;-78
2022/04/02 10:14:57;;;;;;;1.60;1.50;;;;;;;17.98;44.32;93317.91;6146034;23;20174;-79
2022/04/02 10:17:28;;;;;;;2.23;1.30;;;;;;;17.96;41.82;93339.25;6145386;23;20198;-79
2022/04/02 10:19:56;;;;;;;2.90;1.50;;;;;;;17.85;41.11;93319.53;6145534;23;20238;-79
2022/04/02 10:22:37;;;;;;;1.33;1.23;;;;;;;17.77;40.83;93320.22;6145115;23;20233;-78
2022/04/02 10:25:11;;;;;;;1.90;1.30;;;;;;;17.94;39.46;93330.13;6145960;23;20160;-79
2022/04/02 10:27:39;;;;;;;3.03;1.43;;;;;;;18.26;39.93;93310.75;6145038;23;20156;-79
2022/04/02 10:30:09;;;;;;;4.30;1.30;;;;;;;18.29;38.52;93318.03;6145563;23;20168;-80
2022/04/02 10:32:55;;;;;;;2.30;1.40;;;;;;;18.47;38.09;93309.19;6145104;23;20175;-80
2022/04/02 10:35:23;;;;;;;1.80;1.23;;;;;;;18.59;37.69;93315.47;6143221;23;20167;-79
2022/04/02 10:38:09;;;;;;;2.60;1.30;;;;;;;18.75;37.94;93305.38;6145447;23;20244;-79
2022/04/02 10:40:42;;;;;;;1.77;1.60;;;;;;;18.82;37.57;93283.88;6144435;22;20650;-80
2022/04/02 10:43:20;;;;;;;1.50;1.13;;;;;;;18.83;37.75;93291.47;6144660;23;20171;-78
2022/04/02 10:45:48;;;;;;;2.53;1.40;;;;;;;18.63;38.56;93294.63;6145548;23;20526;-79
2022/04/02 10:48:16;;;;;;;2.67;1.30;;;;;;;18.27;37.47;93289.38;6145618;23;20203;-79
2022/04/02 10:50:45;;;;;;;2.57;1.53;;;;;;;18.12;38.03;93277.34;6144659;23;20685;-79
2022/04/02 10:53:17;;;;;;;2.20;1.30;;;;;;;17.89;38.59;93277.66;6145311;23;20259;-78
2022/04/02 10:55:47;;;;;;;1.50;1.20;;;;;;;17.62;37.27;93291.63;6145501;23;20160;-79
2022/04/02 10:58:15;;;;;;;4.23;1.57;;;;;;;17.64;37.91;93288.69;6145508;23;20168;-78
2022/04/02 11:00:46;;;;;;;4.27;1.30;;;;;;;18.05;37.69;93297.25;6145385;23;20179;-78
2022/04/02 11:03:28;;;;;;;3.27;1.40;;;;;;;18.20;36.58;93281.16;6145433;23;20178;-79
2022/04/02 11:05:55;;;;;;;2.67;1.37;;;;;;;18.10;36.70;93284.00;6146971;23;20170;-78
2022/04/02 11:08:22;;;;;;;1.97;1.10;;;;;;;17.62;37.88;93288.22;6146497;23;20167;-78
2022/04/02 11:10:50;;;;;;;1.47;1.37;;;;;;;17.34;39.04;93290.84;6146370;23;20221;-78
2022/04/02 11:13:30;;;;;;;1.30;1.20;;;;;;;17.12;39.46;93279.44;6146875;23;20175;-78
2022/04/02 11:15:57;;;;;;;1.57;1.10;;;;;;;17.00;38.85;93280.72;6146663;23;20170;-79
2022/04/02 11:18:25;;;;;;;1.63;1.30;;;;;;;16.92;39.61;93291.13;6146013;23;20176;-81
2022/04/02 11:21:01;;;;;;;3.23;1.90;;;;;;;16.77;39.92;93307.91;6146926;23;20613;-77
2022/04/02 11:23:45;;;;;;;2.67;1.03;;;;;;;16.44;38.31;93311.59;6145874;23;20167;-85
2022/04/02 11:26:27;;;;;;;3.37;1.27;;;;;;;16.05;40.51;93330.25;6146505;23;20160;-84
2022/04/02 11:29:03;;;;;;;2.97;1.60;;;;;;;15.84;45.25;93339.47;6146417;23;20156;-80
2022/04/02 11:31:30;;;;;;;3.53;1.40;;;;;;;15.35;50.77;93365.97;6144682;23;20199;-80
2022/04/02 11:33:59;;;;;;;6.00;2.73;;;;;;;14.91;52.49;93391.50;6147459;23;20492;-82
2022/04/02 11:36:42;;;;;;;5.47;3.37;;;;;;;14.64;57.10;93423.38;6146551;23;20171;-81
2022/04/02 11:39:11;;;;;;;10.43;2.73;;;;;;;13.93;62.10;93400.28;6147612;23;20185;-83
2022/04/02 11:41:43;;;;;;;7.13;3.53;;;;;;;13.37;66.13;93394.47;6147249;23;20569;-82
2022/04/02 11:44:14;;;;;;;4.53;2.60;;;;;;;12.87;72.22;93384.13;6147149;23;20172;-83
2022/04/02 11:46:54;;;;;;;5.77;2.80;;;;;;;12.11;77.79;93397.16;6146711;23;20255;-83
2022/04/02 11:49:28;;;;;;;4.53;2.60;;;;;;;11.69;81.87;93399.06;6146114;23;20191;-82
2022/04/02 11:52:03;;;;;;;6.67;4.03;;;;;;;11.56;81.21;93404.75;6147330;23;20196;-85
2022/04/02 11:54:30;;;;;;;2.90;2.30;;;;;;;11.38;84.44;93411.97;6145449;23;20574;-83
2022/04/02 11:57:18;;;;;;;5.00;2.73;;;;;;;11.26;84.05;93466.00;6147161;23;20174;-82
2022/04/02 11:59:50;;;;;;;7.10;2.90;;;;;;;11.13;91.24;93482.03;6144097;23;20174;-80